This is the latest recevied weather packets stored in our database for station/object K0JSC-13. If no packets are shown the sender has not sent any weather packets the latest 10 day(s).
| Time | Temp. | Humidity | Pressure | Rain* | Wind** | Luminosity | Snow |
|---|---|---|---|---|---|---|---|
| 1777330443 | 16.67° C | 34% | 986.5 hPa | 0 mm | - | - | - |
| 1777327204 | 17.78° C | 31% | 986.1 hPa | 0 mm | - | - | - |
| 1777322163 | 17.22° C | 33% | 986.2 hPa | 0 mm | - | - | - |
| 1777320137 | 19.44° C | 18% | 985.8 hPa | 0 mm | - | - | - |
| 1777316403 | 19.44° C | 18% | 986.3 hPa | 0 mm | - | - | - |
| 1777314963 | 18.89° C | 21% | 986.5 hPa | 0 mm | - | - | - |
| 1777312443 | 17.78° C | 21% | 987.2 hPa | 0 mm | - | - | - |
| 1777310958 | 18.33° C | 21% | 987.3 hPa | 0 mm | - | - | - |
| 1777310284 | 17.78° C | 23% | 987.4 hPa | 0 mm | - | - | - |
| 1777306683 | 16.67° C | 23% | 987.8 hPa | 0 mm | - | - | - |
| 1777302543 | 15° C | 27% | 988.2 hPa | 0 mm | - | - | - |
| 1777301643 | 14.44° C | 28% | 988.2 hPa | 0 mm | - | - | - |
| 1777298178 | 11.67° C | 36% | 988.1 hPa | 0 mm | - | - | - |
| 1777297503 | 11.11° C | 37% | 988.1 hPa | 0 mm | - | - | - |
| 1777296963 | 10.56° C | 39% | 988 hPa | 0 mm | - | - | - |
| 1777296423 | 10° C | 40% | 987.8 hPa | 0 mm | - | - | - |
| 1777294443 | 10° C | 39% | 987.4 hPa | 0 mm | - | - | - |
| 1777285623 | 9.44° C | 38% | 985.6 hPa | 0 mm | - | - | - |
| 1777284543 | 8.89° C | 41% | 985.4 hPa | 0 mm | - | - | - |
| 1777283643 | 8.89° C | 41% | 985.3 hPa | 0 mm | - | - | - |
| 1777274417 | 10.56° C | 40% | 985 hPa | 0 mm | - | - | - |
| 1777272437 | 11.11° C | 39% | 985.1 hPa | 0 mm | - | - | - |
| 1777271223 | 11.11° C | 39% | 985.1 hPa | 0 mm | - | - | - |
| 1777269604 | 12.22° C | 38% | 984.7 hPa | 0 mm | - | - | - |
| 1777268163 | 12.22° C | 39% | 984.6 hPa | 0 mm | - | - | - |
* Rain latest hour (hover to see other rain measurements)
** Current wind speed in m/s (hover to see current wind gust speed)